Paxson, AK

12:06 PM AKDT on September 17, 2014 (GMT -0800)
Allen Army Air Field | Change Station
CLOSE
Current Station
Airport
Location: Big Delta,
Elevation: 1306 ft
Nearby Weather Stations

Elev 1306 ft 63.99 °N, 145.72 °W | Updated 13 minutes ago

Mostly Cloudy
Mostly Cloudy
56 °F
Feels Like 56 °F
N
9
Wind Variable Wind from East

Today
High -- | Low -- °F
--% Chance of Precip.
Yesterday
High -- | Low -- °F
Precip. -- in
7:11 AM 7:59 PM
Waning Crescent, 33% visible
Pressure 29.45 in
Visibility 10.0 miles
Clouds Few 8000 ft
Few 14000 ft
Mostly Cloudy 20000 ft
Dew Point 35 °F
Humidity 45%
Rainfall 0.00 in
Snow Depth 1 in , 0 in , 0 in
UV 1 out of 12
Pollen Not available.
Air Quality Not available.
Flu Activity Not available.
METAR PABI 171953Z 08008KT 10SM FEW080 FEW140 BKN200 13/02 A2944 RMK AO2 SLP973 WATERFOWL OHD T01330017

More Conditions Fewer Conditions

Pressure 29.45 in
Visibility 10.0 miles
Clouds Few 8000 ft
Few 14000 ft
Mostly Cloudy 20000 ft
Dew Point 35 °F
Humidity 45%
Rainfall 0.00 in
Snow Depth 1 in , 0 in , 0 in
UV 1 out of 12
Pollen Not available.
Air Quality Not available.
Flu Activity Not available.
METAR PABI 171953Z 08008KT 10SM FEW080 FEW140 BKN200 13/02 A2944 RMK AO2 SLP973 WATERFOWL OHD T01330017

More Conditions Fewer Conditions

10-Day Weather Forecast

Almanac

Astronomy

Sep. 17, 2014 Rise Set
Actual Time 7:11 AM AKDT 7:59 PM AKDT
Civil Twilight 6:23 AM AKDT 8:47 PM AKDT
Nautical Twilight 5:22 AM AKDT 9:47 PM AKDT
Astronomical Twilight 4:10 AM AKDT 10:58 PM AKDT
Moon No Moon Rise 5:42 PM AKDT
Length of Visible Light 14h 24m
Length of Day
12h 48m
Tomorrow will be 6m 23s shorter.
Waning Crescent, 33% of the Moon is Illuminated
Today
Waning Crescent
Sep 24
New
Oct 1
First Quarter
Oct 8
Full
Oct 15
Last Quarter

Today's Extremes

State Highs State Lows

Community

WunderPhotos

Upload Photos

1,754,154 photos uploaded!

Nearby

Snow Depth

Station Depth Elevation
Munson Ridge 1 in 3100 ft
Little Chena Ridge 0 in 2000 ft
Port Graham 0 in 300 ft
Granite Creek 0 in 1240 ft
Coldfoot 0 in 1040 ft

Earthquake Activity

City Distance Mag. Time & Date
No recent earthquake activity has been reported nearby.
Minimum magnitude displayed is 2.5.

Coastal Water Temperatures

Place Temperature
No Stations Reporting

Nearby Weather Stations